Seven Seas Explorer — V7QK9 — position and weather

sailwx.info

Track history (hours):
 
Tides and Currents Weather Stations Pressure Air Temp Water Temp Dewpoint Dewpoint Depression Visibility Wind Speed Wind Dir Waves Ship Positions

Seven Seas Explorer

Last reported at 2017-Dec-18 06:00 UTC. Time now 2017-Dec-18 08:54 UTC.
Position N 19°36' W 067°54'.

Length 224 m; draft 7.2 m.

Type: Ship. MMSI: 538006712.

Wind from 060 at 25 knots

Barometer 1018.0 mb
Air temperature 23.0 ° C
Visibility: greater than 5.4 NM
Water temperature 28.0 ° C

Date/timePositionNaut miles runAvg speedWind from/ knotsBaromVisibWave heightAir tempDewpointWater temp
2017-Dec-18 06:00N 19°36' W 067°54'7919.8 060 / 251018.0 5.4 23.0 28.0
2017-Dec-18 02:00N 19°30' W 066°30'16915.6 070 / 201017.0 5.4 24.0
2017-Dec-17 15:07N 18°24' W 063°45'317.5
2017-Dec-17 14:58N 18°23' W 063°43'817.8
2017-Dec-17 14:29N 18°18' W 063°35'917.8
2017-Dec-17 14:00N 18°12' W 063°28'1517.5
2017-Dec-17 13:08N 18°03' W 063°16'318.5
2017-Dec-17 12:59N 18°01' W 063°13'1017.4
2017-Dec-17 12:25N 17°56' W 063°05'817.8
2017-Dec-17 11:59N 17°54' W 062°57'3 6.0
2017-Dec-17 11:27N 17°54' W 062°53'1113.3
2017-Dec-17 10:35N 17°44' W 062°48'117.2
2017-Dec-17 10:30N 17°43' W 062°47'917.7
2017-Dec-17 10:00N 17°36' W 062°42'917.7
2017-Dec-17 09:31N 17°29' W 062°36'917.7
2017-Dec-17 09:01N 17°21' W 062°31'3208.4
2017-Dec-17 09:00N 17°18' W 062°30'611.7 050 / 301013.010.8 24.022.628.0
2017-Dec-17 08:31N 17°14' W 062°26'917.6
2017-Dec-17 08:01N 17°07' W 062°20'917.8
2017-Dec-17 07:30N 16°60' W 062°15'917.8
2017-Dec-17 07:00N 16°52' W 062°10'3170.8
2017-Dec-17 07:00N 16°54' W 062°12'1123.4 060 / 281014.0 5.4 23.0 28.0
2017-Dec-17 06:30N 16°45' W 062°05'917.1
2017-Dec-17 06:01N 16°37' W 062°03'917.5
2017-Dec-17 05:31N 16°28' W 062°01'917.6
2017-Dec-17 05:00N 16°19' W 061°59'917.7
2017-Dec-17 04:31N 16°11' W 061°57'917.4
2017-Dec-17 04:01N 16°03' W 061°54'1317.3
2017-Dec-17 03:15N 15°51' W 061°49'417.3
2017-Dec-17 03:00N 15°47' W 061°47'1117.2
2017-Dec-17 02:22N 15°36' W 061°43'1437.3
2017-Dec-17 02:00N 15°24' W 061°36'531.7 050 / 201014.0 5.4 24.0
2017-Dec-17 01:50N 15°28' W 061°40'4517.4
2017-Dec-16 23:15N 14°47' W 061°21'517.0
2017-Dec-16 22:57N 14°42' W 061°19'817.3
2017-Dec-16 22:30N 14°35' W 061°16'917.9
2017-Dec-16 22:00N 14°26' W 061°13'918.2
2017-Dec-16 21:30N 14°18' W 061°09'917.7
2017-Dec-16 21:00N 14°10' W 061°05'1016.2
2017-Dec-16 20:24N 14°01' W 061°01'1 0.1
2017-Dec-16 11:14N 14°01' W 060°60'0 0.0
2017-Dec-16 10:44N 14°01' W 060°60'0 0.0
2017-Dec-16 10:30N 14°01' W 060°60'1 2.0
2017-Dec-16 09:59N 14°01' W 061°01'4 9.3
2017-Dec-16 09:30N 14°06' W 061°01'4 8.0
2017-Dec-16 09:00N 14°09' W 060°58'4 8.8
2017-Dec-16 08:30N 14°08' W 060°53'510.5
2017-Dec-16 08:00N 14°05' W 060°49'910.1
2017-Dec-16 07:08N 13°59' W 060°42'21 9.7
2017-Dec-16 05:00N 13°48' W 060°24'25 8.4 060 / 251014.0 5.4 23.0 28.0
2017-Dec-16 02:00N 13°30' W 060°06'3311.2 060 / 201015.0 5.4 23.0
2017-Dec-15 23:00N 13°06' W 059°42'64 3.5 090 / 151012.0 5.4 25.025.028.0
2017-Dec-15 05:00N 12°30' W 060°36'3411.2 060 / 251014.0 5.4 23.0 28.0
2017-Dec-15 02:00N 12°06' W 061°00'4816.2 080 / 221014.0 5.4 24.0
2017-Dec-14 23:00N 11°54' W 061°48'36 2.6 060 / 251012.0 5.4 26.024.628.0
2017-Dec-14 09:00N 12°30' W 061°42'5513.8 090 / 301012.0 5.4 24.022.628.0
2017-Dec-14 05:00N 13°24' W 061°30'4415.6 080 / 291014.0 5.4 22.0 28.0
2017-Dec-14 02:09N 14°07' W 061°18'214.2
2017-Dec-14 02:00N 14°09' W 061°17'6415.8
2017-Dec-14 02:00N 14°06' W 061°12'1021.0 100 / 251016.0 5.4 24.0
2017-Dec-14 01:30N 14°16' W 061°15'714.7
2017-Dec-14 01:00N 14°23' W 061°13'714.5
2017-Dec-14 00:31N 14°30' W 061°11'713.9
2017-Dec-14 00:00N 14°35' W 061°06'2 3.2
2017-Dec-13 23:26N 14°36' W 061°04'0 0.0
2017-Dec-13 22:44N 14°36' W 061°04'0 0.0
2017-Dec-13 22:27N 14°36' W 061°04'0 0.0
2017-Dec-13 20:14N 14°36' W 061°04'0 0.0
2017-Dec-13 20:00N 14°36' W 061°04'0 0.0
2017-Dec-13 19:30N 14°36' W 061°04'0 0.0
2017-Dec-13 17:51N 14°36' W 061°04'0 0.0
2017-Dec-13 16:41N 14°36' W 061°04'0 0.0
2017-Dec-13 14:03N 14°36' W 061°04'0 0.0
2017-Dec-13 13:57N 14°36' W 061°04'0 0.0
2017-Dec-13 13:26N 14°36' W 061°04'6 2.1
2017-Dec-13 10:37N 14°36' W 061°11'211.9
2017-Dec-13 10:24N 14°38' W 061°13'4312.9
2017-Dec-13 07:04N 15°14' W 061°35'412.5
2017-Dec-13 06:44N 15°18' W 061°37'612.1
2017-Dec-13 06:16N 15°23' W 061°40'412.6
2017-Dec-13 05:58N 15°27' W 061°42'812.8
2017-Dec-13 05:23N 15°33' W 061°45'512.2
2017-Dec-13 05:00N 15°30' W 061°42'3025.4 130 / 121013.0 5.4 25.0 28.0
2017-Dec-13 03:48N 15°56' W 061°58'617.2
2017-Dec-13 03:29N 16°02' W 061°59'817.4
2017-Dec-13 03:00N 16°10' W 061°59'917.5
2017-Dec-13 02:31N 16°19' W 061°59'917.5
2017-Dec-13 02:01N 16°27' W 061°59'6350.6
2017-Dec-13 02:00N 16°24' W 061°54'1326.7 100 / 121014.0 5.4 24.0
2017-Dec-13 01:31N 16°36' W 061°59'917.3
2017-Dec-13 01:01N 16°45' W 061°59'917.3
2017-Dec-13 00:31N 16°53' W 061°59'917.5
2017-Dec-13 00:00N 17°02' W 061°59'815.3
2017-Dec-12 23:31N 17°09' W 061°57'510.6
2017-Dec-12 23:00N 17°07' W 061°51'1 1.0
2017-Dec-12 22:29N 17°07' W 061°51'0 0.0
2017-Dec-12 21:59N 17°07' W 061°51'0 0.0
2017-Dec-12 21:29N 17°07' W 061°51'0 0.0
2017-Dec-12 20:59N 17°07' W 061°51'0 0.0
2017-Dec-12 20:26N 17°07' W 061°51'0 0.0
2017-Dec-12 19:59N 17°07' W 061°51'0 0.0
2017-Dec-12 19:29N 17°07' W 061°51'0 0.0
2017-Dec-12 18:59N 17°07' W 061°51'0 0.0
2017-Dec-12 18:29N 17°07' W 061°51'0 0.0
2017-Dec-12 17:59N 17°07' W 061°51'0 0.0
2017-Dec-12 17:29N 17°07' W 061°51'0 0.0
2017-Dec-12 16:59N 17°07' W 061°51'0 0.0
2017-Dec-12 16:29N 17°07' W 061°51'0 0.0
2017-Dec-12 15:59N 17°07' W 061°51'0 0.0
2017-Dec-12 15:29N 17°07' W 061°51'0 0.0
2017-Dec-12 14:59N 17°07' W 061°51'0 0.0
2017-Dec-12 14:29N 17°07' W 061°51'0 0.0
2017-Dec-12 13:59N 17°07' W 061°51'0 0.0
2017-Dec-12 13:29N 17°07' W 061°51'0 0.0
2017-Dec-12 12:59N 17°07' W 061°51'0 0.0
2017-Dec-12 12:29N 17°07' W 061°51'0 0.0
2017-Dec-12 12:00N 17°07' W 061°51'4 7.8
2017-Dec-12 11:31N 17°09' W 061°55'4 7.2
2017-Dec-12 11:01N 17°10' W 061°58'3 6.3
2017-Dec-12 10:31N 17°09' W 062°01'3 6.4
2017-Dec-12 10:00N 17°08' W 062°05'3 6.7
2017-Dec-12 09:31N 17°08' W 062°08'3 6.7
2017-Dec-12 09:01N 17°07' W 062°12'3 6.6
2017-Dec-12 08:31N 17°06' W 062°15'3 6.4
2017-Dec-12 08:01N 17°06' W 062°18'3 6.0
2017-Dec-12 07:30N 17°05' W 062°21'3 6.2
2017-Dec-12 07:00N 17°04' W 062°24'3 6.0
2017-Dec-12 06:30N 17°04' W 062°27'3 6.3
2017-Dec-12 06:01N 17°03' W 062°31'3 2.9
2017-Dec-12 05:00N 17°00' W 062°30'1215.5 030 / 91012.0 5.4 23.0 26.0
2017-Dec-12 04:13N 17°04' W 062°42'10 4.3
2017-Dec-12 02:00N 17°12' W 062°48'815.6 080 / 161016.0 5.4 21.0
2017-Dec-12 01:30N 17°18' W 062°53'3 5.6
2017-Dec-12 00:56N 17°17' W 062°50'3 6.6
2017-Dec-12 00:25N 17°16' W 062°47'3 6.8
2017-Dec-11 23:59N 17°17' W 062°44'2 0.3
2017-Dec-11 15:33N 17°16' W 062°46'117.5
2017-Dec-11 15:30N 17°17' W 062°47'1519.2
2017-Dec-11 14:42N 17°26' W 062°60'419.8
2017-Dec-11 14:30N 17°28' W 063°03'1020.2
2017-Dec-11 14:01N 17°36' W 063°09'1119.3
2017-Dec-11 13:25N 17°44' W 063°18'819.7
2017-Dec-11 13:00N 17°46' W 063°26'1019.6
2017-Dec-11 12:30N 17°49' W 063°36'2919.1
2017-Dec-11 11:00N 17°54' W 064°06'2618.7 050 / 271011.010.8 27.022.828.0
2017-Dec-11 09:37N 18°04' W 064°31'318.6
2017-Dec-11 09:28N 18°04' W 064°34'918.8
2017-Dec-11 09:01N 18°06' W 064°43'1019.0
2017-Dec-11 08:30N 18°09' W 064°52'1019.4
2017-Dec-11 08:00N 18°11' W 065°02'1019.1
2017-Dec-11 07:31N 18°18' W 065°09'1019.1
2017-Dec-11 07:00N 18°25' W 065°16'1019.0
2017-Dec-11 06:30N 18°28' W 065°25'2818.5
2017-Dec-11 05:00N 18°36' W 065°54'6516.3 060 / 221013.0 5.4 20.0 22.0
2017-Dec-11 01:00N 18°54' W 067°00'8320.7 080 / 231014.0 5.4 21.0
2017-Dec-10 21:00N 19°18' W 068°24'6521.6 090 / 151013.010.8 27.022.828.0
2017-Dec-10 18:00N 19°36' W 069°30'14618.2 130 / 151013.0 5.4 27.0 22.0
2017-Dec-10 10:00N 20°12' W 072°00'5919.7 140 / 151012.010.8 22.019.024.0
2017-Dec-10 07:00N 20°30' W 073°00'6312.6 130 / 121013.0 5.4 19.0 22.0
2017-Dec-10 02:00N 20°42' W 074°06'2525.4 100 / 161016.0 5.4 21.0
2017-Dec-10 01:00N 20°54' W 074°30'11218.7 140 / 201012.0 5.4 23.021.625.0
2017-Dec-09 19:00N 21°30' W 076°24'12916.2 110 / 111012.0 5.4 27.0 25.0
2017-Dec-09 11:00N 22°36' W 078°24'9819.5 180 / 131012.010.8 22.019.024.0
2017-Dec-09 06:00N 24°00' W 079°18'4321.7 170 / 181011.0 5.4 19.0 21.0
2017-Dec-09 04:00N 24°42' W 079°30'3616.4 160 / 131013.0 5.4 21.0
2017-Dec-09 01:48N 25°17' W 079°40'515.1
2017-Dec-09 01:30N 25°21' W 079°40'815.1
2017-Dec-09 01:00N 25°29' W 079°40'714.4
2017-Dec-09 00:30N 25°35' W 079°45'815.6
2017-Dec-09 00:00N 25°39' W 079°52'816.0
2017-Dec-08 23:30N 25°44' W 079°59'612.6
2017-Dec-08 23:00N 25°46' W 080°06'6455.1
2017-Dec-08 23:00N 25°42' W 080°00'1020.3 180 / 181011.0 5.4 24.021.124.0
2017-Dec-08 22:31N 25°46' W 080°10'1 1.6
2017-Dec-08 22:00N 25°46' W 080°11'0 0.0
2017-Dec-08 21:30N 25°46' W 080°11'0 0.0
2017-Dec-08 21:00N 25°46' W 080°11'0 0.0
2017-Dec-08 20:30N 25°46' W 080°11'0 0.0
2017-Dec-08 19:54N 25°46' W 080°11'0 0.0
2017-Dec-08 19:30N 25°46' W 080°11'0 0.0
2017-Dec-08 18:59N 25°46' W 080°11'0 0.0
2017-Dec-08 18:30N 25°46' W 080°11'0 0.0
2017-Dec-08 18:00N 25°46' W 080°11'0 0.0
2017-Dec-08 17:30N 25°46' W 080°11'0 0.0
2017-Dec-08 16:54N 25°46' W 080°11'0 0.0
2017-Dec-08 16:30N 25°46' W 080°11'0 0.0
2017-Dec-08 16:00N 25°46' W 080°11'0 0.0
2017-Dec-08 15:30N 25°46' W 080°11'0 0.0
2017-Dec-08 15:00N 25°46' W 080°11'0 0.0
2017-Dec-08 14:30N 25°46' W 080°11'0 0.0
2017-Dec-08 14:00N 25°46' W 080°11'0 0.0
2017-Dec-08 13:30N 25°46' W 080°11'0 0.0
2017-Dec-08 13:00N 25°46' W 080°11'0 0.0
2017-Dec-08 12:30N 25°46' W 080°11'0 0.0
2017-Dec-08 12:00N 25°46' W 080°11'0 0.0
2017-Dec-08 11:30N 25°46' W 080°11'0 0.0
2017-Dec-08 10:59N 25°46' W 080°11'0 0.0
2017-Dec-08 10:30N 25°46' W 080°11'1 2.6
2017-Dec-08 10:00N 25°46' W 080°09'5 9.7
2017-Dec-08 09:31N 25°46' W 080°04'5 9.4
2017-Dec-08 09:00N 25°49' W 079°59'5 9.5
2017-Dec-08 08:30N 25°51' W 079°55'510.1
2017-Dec-08 08:00N 25°53' W 079°50'510.1
2017-Dec-08 07:30N 25°55' W 079°45'510.1
2017-Dec-08 07:00N 25°58' W 079°40'612.4
2017-Dec-08 06:30N 26°01' W 079°34'713.1
2017-Dec-08 06:00N 26°04' W 079°27'91566.9
2017-Dec-08 06:00N 26°06' W 079°18'   150 / 191013.0 5.4 19.0 21.0
Track history (hours):
 
Tides and Currents Weather Stations Pressure Air Temp Water Temp Dewpoint Dewpoint Depression Visibility Wind Speed Wind Dir Waves Ship Positions

Seven Seas Explorer

Last reported at 2017-Dec-18 06:00 UTC. Time now 2017-Dec-18 08:54 UTC.
Position N 19°36' W 067°54'.

Length 224 m; draft 7.2 m.

Type: Ship. MMSI: 538006712.

Wind from 060 at 25 knots

Barometer 1018.0 mb
Air temperature 23.0 ° C
Visibility: greater than 5.4 NM
Water temperature 28.0 ° C

Date/timePositionNaut miles runAvg speedWind from/ knotsBaromVisibWave heightAir tempDewpointWater temp
2017-Dec-18 06:00N 19°36' W 067°54'7919.8 060 / 251018.0 5.4 23.0 28.0
2017-Dec-18 02:00N 19°30' W 066°30'16915.6 070 / 201017.0 5.4 24.0
2017-Dec-17 15:07N 18°24' W 063°45'317.5
2017-Dec-17 14:58N 18°23' W 063°43'817.8
2017-Dec-17 14:29N 18°18' W 063°35'917.8
2017-Dec-17 14:00N 18°12' W 063°28'1517.5
2017-Dec-17 13:08N 18°03' W 063°16'318.5
2017-Dec-17 12:59N 18°01' W 063°13'1017.4
2017-Dec-17 12:25N 17°56' W 063°05'817.8
2017-Dec-17 11:59N 17°54' W 062°57'3 6.0
2017-Dec-17 11:27N 17°54' W 062°53'1113.3
2017-Dec-17 10:35N 17°44' W 062°48'117.2
2017-Dec-17 10:30N 17°43' W 062°47'917.7
2017-Dec-17 10:00N 17°36' W 062°42'917.7
2017-Dec-17 09:31N 17°29' W 062°36'917.7
2017-Dec-17 09:01N 17°21' W 062°31'3208.4
2017-Dec-17 09:00N 17°18' W 062°30'611.7 050 / 301013.010.8 24.022.628.0
2017-Dec-17 08:31N 17°14' W 062°26'917.6
2017-Dec-17 08:01N 17°07' W 062°20'917.8
2017-Dec-17 07:30N 16°60' W 062°15'917.8
2017-Dec-17 07:00N 16°52' W 062°10'3170.8
2017-Dec-17 07:00N 16°54' W 062°12'1123.4 060 / 281014.0 5.4 23.0 28.0
2017-Dec-17 06:30N 16°45' W 062°05'917.1
2017-Dec-17 06:01N 16°37' W 062°03'917.5
2017-Dec-17 05:31N 16°28' W 062°01'917.6
2017-Dec-17 05:00N 16°19' W 061°59'917.7
2017-Dec-17 04:31N 16°11' W 061°57'917.4
2017-Dec-17 04:01N 16°03' W 061°54'1317.3
2017-Dec-17 03:15N 15°51' W 061°49'417.3
2017-Dec-17 03:00N 15°47' W 061°47'1117.2
2017-Dec-17 02:22N 15°36' W 061°43'1437.3
2017-Dec-17 02:00N 15°24' W 061°36'531.7 050 / 201014.0 5.4 24.0
2017-Dec-17 01:50N 15°28' W 061°40'4517.4
2017-Dec-16 23:15N 14°47' W 061°21'517.0
2017-Dec-16 22:57N 14°42' W 061°19'817.3
2017-Dec-16 22:30N 14°35' W 061°16'917.9
2017-Dec-16 22:00N 14°26' W 061°13'918.2
2017-Dec-16 21:30N 14°18' W 061°09'917.7
2017-Dec-16 21:00N 14°10' W 061°05'1016.2
2017-Dec-16 20:24N 14°01' W 061°01'1 0.1
2017-Dec-16 11:14N 14°01' W 060°60'0 0.0
2017-Dec-16 10:44N 14°01' W 060°60'0 0.0
2017-Dec-16 10:30N 14°01' W 060°60'1 2.0
2017-Dec-16 09:59N 14°01' W 061°01'4 9.3
2017-Dec-16 09:30N 14°06' W 061°01'4 8.0
2017-Dec-16 09:00N 14°09' W 060°58'4 8.8
2017-Dec-16 08:30N 14°08' W 060°53'510.5
2017-Dec-16 08:00N 14°05' W 060°49'910.1
2017-Dec-16 07:08N 13°59' W 060°42'21 9.7
2017-Dec-16 05:00N 13°48' W 060°24'25 8.4 060 / 251014.0 5.4 23.0 28.0
2017-Dec-16 02:00N 13°30' W 060°06'3311.2 060 / 201015.0 5.4 23.0
2017-Dec-15 23:00N 13°06' W 059°42'64 3.5 090 / 151012.0 5.4 25.025.028.0
2017-Dec-15 05:00N 12°30' W 060°36'3411.2 060 / 251014.0 5.4 23.0 28.0
2017-Dec-15 02:00N 12°06' W 061°00'4816.2 080 / 221014.0 5.4 24.0
2017-Dec-14 23:00N 11°54' W 061°48'36 2.6 060 / 251012.0 5.4 26.024.628.0
2017-Dec-14 09:00N 12°30' W 061°42'5513.8 090 / 301012.0 5.4 24.022.628.0
2017-Dec-14 05:00N 13°24' W 061°30'4415.6 080 / 291014.0 5.4 22.0 28.0
2017-Dec-14 02:09N 14°07' W 061°18'214.2
2017-Dec-14 02:00N 14°09' W 061°17'6415.8
2017-Dec-14 02:00N 14°06' W 061°12'1021.0 100 / 251016.0 5.4 24.0
2017-Dec-14 01:30N 14°16' W 061°15'714.7
2017-Dec-14 01:00N 14°23' W 061°13'714.5
2017-Dec-14 00:31N 14°30' W 061°11'713.9
2017-Dec-14 00:00N 14°35' W 061°06'2 3.2
2017-Dec-13 23:26N 14°36' W 061°04'0 0.0
2017-Dec-13 22:44N 14°36' W 061°04'0 0.0
2017-Dec-13 22:27N 14°36' W 061°04'0 0.0
2017-Dec-13 20:14N 14°36' W 061°04'0 0.0
2017-Dec-13 20:00N 14°36' W 061°04'0 0.0
2017-Dec-13 19:30N 14°36' W 061°04'0 0.0
2017-Dec-13 17:51N 14°36' W 061°04'0 0.0
2017-Dec-13 16:41N 14°36' W 061°04'0 0.0
2017-Dec-13 14:03N 14°36' W 061°04'0 0.0
2017-Dec-13 13:57N 14°36' W 061°04'0 0.0
2017-Dec-13 13:26N 14°36' W 061°04'6 2.1
2017-Dec-13 10:37N 14°36' W 061°11'211.9
2017-Dec-13 10:24N 14°38' W 061°13'4312.9
2017-Dec-13 07:04N 15°14' W 061°35'412.5
2017-Dec-13 06:44N 15°18' W 061°37'612.1
2017-Dec-13 06:16N 15°23' W 061°40'412.6
2017-Dec-13 05:58N 15°27' W 061°42'812.8
2017-Dec-13 05:23N 15°33' W 061°45'512.2
2017-Dec-13 05:00N 15°30' W 061°42'3025.4 130 / 121013.0 5.4 25.0 28.0
2017-Dec-13 03:48N 15°56' W 061°58'617.2
2017-Dec-13 03:29N 16°02' W 061°59'817.4
2017-Dec-13 03:00N 16°10' W 061°59'917.5
2017-Dec-13 02:31N 16°19' W 061°59'917.5
2017-Dec-13 02:01N 16°27' W 061°59'6350.6
2017-Dec-13 02:00N 16°24' W 061°54'1326.7 100 / 121014.0 5.4 24.0
2017-Dec-13 01:31N 16°36' W 061°59'917.3
2017-Dec-13 01:01N 16°45' W 061°59'917.3
2017-Dec-13 00:31N 16°53' W 061°59'917.5
2017-Dec-13 00:00N 17°02' W 061°59'815.3
2017-Dec-12 23:31N 17°09' W 061°57'510.6
2017-Dec-12 23:00N 17°07' W 061°51'1 1.0
2017-Dec-12 22:29N 17°07' W 061°51'0 0.0
2017-Dec-12 21:59N 17°07' W 061°51'0 0.0
2017-Dec-12 21:29N 17°07' W 061°51'0 0.0
2017-Dec-12 20:59N 17°07' W 061°51'0 0.0
2017-Dec-12 20:26N 17°07' W 061°51'0 0.0
2017-Dec-12 19:59N 17°07' W 061°51'0 0.0
2017-Dec-12 19:29N 17°07' W 061°51'0 0.0
2017-Dec-12 18:59N 17°07' W 061°51'0 0.0
2017-Dec-12 18:29N 17°07' W 061°51'0 0.0
2017-Dec-12 17:59N 17°07' W 061°51'0 0.0
2017-Dec-12 17:29N 17°07' W 061°51'0 0.0
2017-Dec-12 16:59N 17°07' W 061°51'0 0.0
2017-Dec-12 16:29N 17°07' W 061°51'0 0.0
2017-Dec-12 15:59N 17°07' W 061°51'0 0.0
2017-Dec-12 15:29N 17°07' W 061°51'0 0.0
2017-Dec-12 14:59N 17°07' W 061°51'0 0.0
2017-Dec-12 14:29N 17°07' W 061°51'0 0.0
2017-Dec-12 13:59N 17°07' W 061°51'0 0.0
2017-Dec-12 13:29N 17°07' W 061°51'0 0.0
2017-Dec-12 12:59N 17°07' W 061°51'0 0.0
2017-Dec-12 12:29N 17°07' W 061°51'0 0.0
2017-Dec-12 12:00N 17°07' W 061°51'4 7.8
2017-Dec-12 11:31N 17°09' W 061°55'4 7.2
2017-Dec-12 11:01N 17°10' W 061°58'3 6.3
2017-Dec-12 10:31N 17°09' W 062°01'3 6.4
2017-Dec-12 10:00N 17°08' W 062°05'3 6.7
2017-Dec-12 09:31N 17°08' W 062°08'3 6.7
2017-Dec-12 09:01N 17°07' W 062°12'3 6.6
2017-Dec-12 08:31N 17°06' W 062°15'3 6.4
2017-Dec-12 08:01N 17°06' W 062°18'3 6.0
2017-Dec-12 07:30N 17°05' W 062°21'3 6.2
2017-Dec-12 07:00N 17°04' W 062°24'3 6.0
2017-Dec-12 06:30N 17°04' W 062°27'3 6.3
2017-Dec-12 06:01N 17°03' W 062°31'3 2.9
2017-Dec-12 05:00N 17°00' W 062°30'1215.5 030 / 91012.0 5.4 23.0 26.0
2017-Dec-12 04:13N 17°04' W 062°42'10 4.3
2017-Dec-12 02:00N 17°12' W 062°48'815.6 080 / 161016.0 5.4 21.0
2017-Dec-12 01:30N 17°18' W 062°53'3 5.6
2017-Dec-12 00:56N 17°17' W 062°50'3 6.6
2017-Dec-12 00:25N 17°16' W 062°47'3 6.8
2017-Dec-11 23:59N 17°17' W 062°44'2 0.3
2017-Dec-11 15:33N 17°16' W 062°46'117.5
2017-Dec-11 15:30N 17°17' W 062°47'1519.2
2017-Dec-11 14:42N 17°26' W 062°60'419.8
2017-Dec-11 14:30N 17°28' W 063°03'1020.2
2017-Dec-11 14:01N 17°36' W 063°09'1119.3
2017-Dec-11 13:25N 17°44' W 063°18'819.7
2017-Dec-11 13:00N 17°46' W 063°26'1019.6
2017-Dec-11 12:30N 17°49' W 063°36'2919.1
2017-Dec-11 11:00N 17°54' W 064°06'2618.7 050 / 271011.010.8 27.022.828.0
2017-Dec-11 09:37N 18°04' W 064°31'318.6
2017-Dec-11 09:28N 18°04' W 064°34'918.8
2017-Dec-11 09:01N 18°06' W 064°43'1019.0
2017-Dec-11 08:30N 18°09' W 064°52'1019.4
2017-Dec-11 08:00N 18°11' W 065°02'1019.1
2017-Dec-11 07:31N 18°18' W 065°09'1019.1
2017-Dec-11 07:00N 18°25' W 065°16'1019.0
2017-Dec-11 06:30N 18°28' W 065°25'2818.5
2017-Dec-11 05:00N 18°36' W 065°54'6516.3 060 / 221013.0 5.4 20.0 22.0
2017-Dec-11 01:00N 18°54' W 067°00'8320.7 080 / 231014.0 5.4 21.0
2017-Dec-10 21:00N 19°18' W 068°24'6521.6 090 / 151013.010.8 27.022.828.0
2017-Dec-10 18:00N 19°36' W 069°30'14618.2 130 / 151013.0 5.4 27.0 22.0
2017-Dec-10 10:00N 20°12' W 072°00'5919.7 140 / 151012.010.8 22.019.024.0
2017-Dec-10 07:00N 20°30' W 073°00'6312.6 130 / 121013.0 5.4 19.0 22.0
2017-Dec-10 02:00N 20°42' W 074°06'2525.4 100 / 161016.0 5.4 21.0
2017-Dec-10 01:00N 20°54' W 074°30'11218.7 140 / 201012.0 5.4 23.021.625.0
2017-Dec-09 19:00N 21°30' W 076°24'12916.2 110 / 111012.0 5.4 27.0 25.0
2017-Dec-09 11:00N 22°36' W 078°24'9819.5 180 / 131012.010.8 22.019.024.0
2017-Dec-09 06:00N 24°00' W 079°18'4321.7 170 / 181011.0 5.4 19.0 21.0
2017-Dec-09 04:00N 24°42' W 079°30'3616.4 160 / 131013.0 5.4 21.0
2017-Dec-09 01:48N 25°17' W 079°40'515.1
2017-Dec-09 01:30N 25°21' W 079°40'815.1
2017-Dec-09 01:00N 25°29' W 079°40'714.4
2017-Dec-09 00:30N 25°35' W 079°45'815.6
2017-Dec-09 00:00N 25°39' W 079°52'816.0
2017-Dec-08 23:30N 25°44' W 079°59'612.6
2017-Dec-08 23:00N 25°46' W 080°06'6455.1
2017-Dec-08 23:00N 25°42' W 080°00'1020.3 180 / 181011.0 5.4 24.021.124.0
2017-Dec-08 22:31N 25°46' W 080°10'1 1.6
2017-Dec-08 22:00N 25°46' W 080°11'0 0.0
2017-Dec-08 21:30N 25°46' W 080°11'0 0.0
2017-Dec-08 21:00N 25°46' W 080°11'0 0.0
2017-Dec-08 20:30N 25°46' W 080°11'0 0.0
2017-Dec-08 19:54N 25°46' W 080°11'0 0.0
2017-Dec-08 19:30N 25°46' W 080°11'0 0.0
2017-Dec-08 18:59N 25°46' W 080°11'0 0.0
2017-Dec-08 18:30N 25°46' W 080°11'0 0.0
2017-Dec-08 18:00N 25°46' W 080°11'0 0.0
2017-Dec-08 17:30N 25°46' W 080°11'0 0.0
2017-Dec-08 16:54N 25°46' W 080°11'0 0.0
2017-Dec-08 16:30N 25°46' W 080°11'0 0.0
2017-Dec-08 16:00N 25°46' W 080°11'0 0.0
2017-Dec-08 15:30N 25°46' W 080°11'0 0.0
2017-Dec-08 15:00N 25°46' W 080°11'0 0.0
2017-Dec-08 14:30N 25°46' W 080°11'0 0.0
2017-Dec-08 14:00N 25°46' W 080°11'0 0.0
2017-Dec-08 13:30N 25°46' W 080°11'0 0.0
2017-Dec-08 13:00N 25°46' W 080°11'0 0.0
2017-Dec-08 12:30N 25°46' W 080°11'0 0.0
2017-Dec-08 12:00N 25°46' W 080°11'0 0.0
2017-Dec-08 11:30N 25°46' W 080°11'0 0.0
2017-Dec-08 10:59N 25°46' W 080°11'0 0.0
2017-Dec-08 10:30N 25°46' W 080°11'1 2.6
2017-Dec-08 10:00N 25°46' W 080°09'5 9.7
2017-Dec-08 09:31N 25°46' W 080°04'5 9.4
2017-Dec-08 09:00N 25°49' W 079°59'5 9.5
2017-Dec-08 08:30N 25°51' W 079°55'510.1
2017-Dec-08 08:00N 25°53' W 079°50'510.1
2017-Dec-08 07:30N 25°55' W 079°45'510.1
2017-Dec-08 07:00N 25°58' W 079°40'612.4
2017-Dec-08 06:30N 26°01' W 079°34'713.1
2017-Dec-08 06:00N 26°04' W 079°27'91566.9
2017-Dec-08 06:00N 26°06' W 079°18'   150 / 191013.0 5.4 19.0 21.0

Dump ship's entire track history